KLM793 SUMU-SBGL
Flight info
| Callsign | KLM793 |
|---|---|
| Flight time | 2h 23m |
| Altitude | 37000 |
| Route | CRR UM540 ITBEB UN857 AKNUB |
| Aircraft | A320/M-SDE3FGHIRWY/LB1 |
Departure
| Time | 2026-05-01 12:15 |
|---|---|
| Airport | Carrasco General Cesáreo L. Berisso International Airport (SUMU) |
Arrival
| Time | 2026-05-01 14:38 |
|---|---|
| Airport | Rio Galeão – Tom Jobim International Airport (SBGL) |
| Time | Latitude | Longitude | Altitude | Speed | Heading |
|---|---|---|---|---|---|
| 2026-05-01 12:04 | -34.84014 | -56.02477 | 74 ft | 0 kts | 317° |
| 2026-05-01 12:08 | -34.84009 | -56.02486 | 65 ft | 4 kts | 305° |
| 2026-05-01 12:08 | -34.84002 | -56.02518 | 69 ft | 3 kts | 279° |
| 2026-05-01 12:09 | -34.84000 | -56.02557 | 74 ft | 7 kts | 269° |
| 2026-05-01 12:09 | -34.84006 | -56.02630 | 73 ft | 9 kts | 264° |
| 2026-05-01 12:09 | -34.84011 | -56.02703 | 67 ft | 9 kts | 265° |
| 2026-05-01 12:09 | -34.84014 | -56.02775 | 71 ft | 8 kts | 269° |
| 2026-05-01 12:10 | -34.84013 | -56.02844 | 70 ft | 8 kts | 271° |
| 2026-05-01 12:10 | -34.84011 | -56.02988 | 65 ft | 9 kts | 271° |
| 2026-05-01 12:10 | -34.84014 | -56.03066 | 66 ft | 9 kts | 264° |
| 2026-05-01 12:11 | -34.84051 | -56.03172 | 66 ft | 4 kts | 241° |
| 2026-05-01 12:11 | -34.84061 | -56.03195 | 60 ft | 2 kts | 240° |
| 2026-05-01 12:11 | -34.84063 | -56.03200 | 67 ft | 0 kts | 240° |
| 2026-05-01 12:12 | -34.84073 | -56.03220 | 67 ft | 2 kts | 240° |
| 2026-05-01 12:12 | -34.84085 | -56.03247 | 60 ft | 11 kts | 240° |
| 2026-05-01 12:12 | -34.84130 | -56.03343 | 65 ft | 13 kts | 240° |
| 2026-05-01 12:12 | -34.84170 | -56.03432 | 58 ft | 11 kts | 242° |
| 2026-05-01 12:13 | -34.84210 | -56.03524 | 67 ft | 13 kts | 242° |
| 2026-05-01 12:13 | -34.84245 | -56.03618 | 59 ft | 12 kts | 264° |
| 2026-05-01 12:13 | -34.84200 | -56.03653 | 67 ft | 8 kts | 21° |
| 2026-05-01 12:13 | -34.84172 | -56.03622 | 60 ft | 0 kts | 53° |
| 2026-05-01 12:14 | -34.84170 | -56.03618 | 61 ft | 4 kts | 53° |
| 2026-05-01 12:14 | -34.84025 | -56.03382 | 65 ft | 71 kts | 53° |
| 2026-05-01 12:14 | -34.83600 | -56.02693 | 84 ft | 130 kts | 53° |
| 2026-05-01 12:14 | -34.82969 | -56.01660 | 170 ft | 168 kts | 55° |
| 2026-05-01 12:15 | -34.82331 | -56.00578 | 1026 ft | 154 kts | 50° |
| 2026-05-01 12:15 | -34.81679 | -55.99552 | 1726 ft | 153 kts | 50° |
| 2026-05-01 12:15 | -34.80903 | -55.98603 | 2205 ft | 167 kts | 40° |
| 2026-05-01 12:15 | -34.79969 | -55.97630 | 2501 ft | 188 kts | 38° |
| 2026-05-01 12:16 | -34.78905 | -55.96544 | 2835 ft | 211 kts | 37° |
| 2026-05-01 12:16 | -34.77718 | -55.95330 | 3203 ft | 234 kts | 37° |
| 2026-05-01 12:16 | -34.76428 | -55.94004 | 3801 ft | 248 kts | 37° |
| 2026-05-01 12:16 | -34.75114 | -55.92638 | 4664 ft | 250 kts | 37° |
| 2026-05-01 12:17 | -34.73784 | -55.91245 | 5502 ft | 254 kts | 37° |
| 2026-05-01 12:17 | -34.72427 | -55.89825 | 6294 ft | 260 kts | 36° |
| 2026-05-01 12:17 | -34.71041 | -55.88372 | 7058 ft | 266 kts | 36° |
| 2026-05-01 12:17 | -34.69631 | -55.86888 | 7837 ft | 270 kts | 36° |
| 2026-05-01 12:18 | -34.68196 | -55.85379 | 8608 ft | 275 kts | 37° |
| 2026-05-01 12:18 | -34.66742 | -55.83851 | 9338 ft | 279 kts | 37° |
| 2026-05-01 12:18 | -34.65256 | -55.82297 | 10021 ft | 285 kts | 36° |
| 2026-05-01 12:18 | -34.63707 | -55.80686 | 10385 ft | 304 kts | 36° |
| 2026-05-01 12:19 | -34.62037 | -55.78959 | 10607 ft | 326 kts | 36° |
| 2026-05-01 12:19 | -34.60289 | -55.77142 | 11151 ft | 335 kts | 36° |
| 2026-05-01 12:19 | -34.58510 | -55.75281 | 11844 ft | 340 kts | 36° |
| 2026-05-01 12:19 | -34.56713 | -55.73394 | 12550 ft | 343 kts | 35° |
| 2026-05-01 12:20 | -34.54895 | -55.71487 | 13223 ft | 347 kts | 35° |
| 2026-05-01 12:20 | -34.53056 | -55.69565 | 13864 ft | 351 kts | 34° |
| 2026-05-01 12:20 | -34.51197 | -55.67627 | 14486 ft | 354 kts | 34° |
| 2026-05-01 12:20 | -34.49320 | -55.65670 | 15113 ft | 358 kts | 34° |
| 2026-05-01 12:21 | -34.47430 | -55.63699 | 15735 ft | 361 kts | 34° |
| 2026-05-01 12:21 | -34.45517 | -55.61707 | 16339 ft | 364 kts | 34° |
| 2026-05-01 12:21 | -34.43585 | -55.59700 | 16927 ft | 367 kts | 34° |
| 2026-05-01 12:21 | -34.41637 | -55.57676 | 17500 ft | 371 kts | 33° |
| 2026-05-01 12:22 | -34.39696 | -55.55665 | 18057 ft | 374 kts | 33° |
| 2026-05-01 12:22 | -34.37711 | -55.53613 | 18591 ft | 377 kts | 33° |
| 2026-05-01 12:22 | -34.35709 | -55.51541 | 19107 ft | 381 kts | 33° |
| 2026-05-01 12:22 | -34.33691 | -55.49445 | 19615 ft | 384 kts | 33° |
| 2026-05-01 12:23 | -34.31665 | -55.47310 | 20111 ft | 388 kts | 34° |
| 2026-05-01 12:23 | -34.29632 | -55.45140 | 20584 ft | 392 kts | 34° |
| 2026-05-01 12:23 | -34.27580 | -55.42945 | 21043 ft | 396 kts | 34° |
| 2026-05-01 12:23 | -34.25510 | -55.40731 | 21487 ft | 399 kts | 34° |
| 2026-05-01 12:24 | -34.23421 | -55.38504 | 21928 ft | 402 kts | 34° |
| 2026-05-01 12:24 | -34.21313 | -55.36265 | 22368 ft | 405 kts | 34° |
| 2026-05-01 12:24 | -34.19186 | -55.34011 | 22797 ft | 408 kts | 34° |
| 2026-05-01 12:24 | -34.17039 | -55.31744 | 23212 ft | 411 kts | 33° |
| 2026-05-01 12:25 | -34.14873 | -55.29464 | 23627 ft | 415 kts | 33° |
| 2026-05-01 12:25 | -34.10502 | -55.24858 | 24408 ft | 420 kts | 33° |
| 2026-05-01 12:25 | -34.08296 | -55.22526 | 24778 ft | 423 kts | 33° |
| 2026-05-01 12:26 | -34.06076 | -55.20172 | 25156 ft | 426 kts | 34° |
| 2026-05-01 12:26 | -34.01580 | -55.15425 | 25879 ft | 432 kts | 33° |
| 2026-05-01 12:26 | -33.99308 | -55.13035 | 26240 ft | 435 kts | 33° |
| 2026-05-01 12:27 | -33.97024 | -55.10632 | 26578 ft | 437 kts | 33° |
| 2026-05-01 12:27 | -33.92411 | -55.05784 | 27243 ft | 442 kts | 33° |
| 2026-05-01 12:28 | -33.87748 | -55.00893 | 27875 ft | 447 kts | 33° |
| 2026-05-01 12:28 | -33.85397 | -54.98430 | 28190 ft | 449 kts | 33° |
| 2026-05-01 12:28 | -33.80656 | -54.93469 | 28771 ft | 454 kts | 33° |
| 2026-05-01 12:29 | -33.78268 | -54.90972 | 29076 ft | 456 kts | 33° |
| 2026-05-01 12:29 | -33.75871 | -54.88465 | 29367 ft | 458 kts | 33° |
| 2026-05-01 12:29 | -33.71038 | -54.83417 | 29914 ft | 462 kts | 33° |
| 2026-05-01 12:30 | -33.66987 | -54.79186 | 30344 ft | 466 kts | 33° |
| 2026-05-01 12:30 | -33.64536 | -54.76631 | 30589 ft | 468 kts | 33° |
| 2026-05-01 12:30 | -33.62076 | -54.74067 | 30839 ft | 469 kts | 32° |
| 2026-05-01 12:31 | -33.59609 | -54.71507 | 31100 ft | 470 kts | 32° |
| 2026-05-01 12:31 | -33.56328 | -54.68106 | 31497 ft | 470 kts | 32° |
| 2026-05-01 12:31 | -33.54662 | -54.66377 | 31713 ft | 470 kts | 32° |
| 2026-05-01 12:31 | -33.52194 | -54.63812 | 32023 ft | 469 kts | 32° |
| 2026-05-01 12:32 | -33.49725 | -54.61249 | 32308 ft | 470 kts | 32° |
| 2026-05-01 12:32 | -33.44781 | -54.56135 | 32913 ft | 469 kts | 31° |
| 2026-05-01 12:32 | -33.42312 | -54.53584 | 33194 ft | 469 kts | 31° |
| 2026-05-01 12:33 | -33.39844 | -54.51035 | 33486 ft | 468 kts | 31° |
| 2026-05-01 12:33 | -33.37374 | -54.48489 | 33742 ft | 469 kts | 31° |
| 2026-05-01 12:33 | -33.34898 | -54.45941 | 33991 ft | 470 kts | 31° |
| 2026-05-01 12:33 | -33.32421 | -54.43390 | 34256 ft | 470 kts | 31° |
| 2026-05-01 12:34 | -33.29942 | -54.40843 | 34530 ft | 470 kts | 30° |
| 2026-05-01 12:34 | -33.27462 | -54.38295 | 34755 ft | 470 kts | 30° |
| 2026-05-01 12:34 | -33.24979 | -54.35747 | 34986 ft | 471 kts | 30° |
| 2026-05-01 12:34 | -33.22531 | -54.33228 | 35216 ft | 471 kts | 30° |
| 2026-05-01 12:35 | -33.20047 | -54.30674 | 35417 ft | 471 kts | 30° |
| 2026-05-01 12:35 | -33.17560 | -54.28122 | 35639 ft | 471 kts | 30° |
| 2026-05-01 12:35 | -33.15039 | -54.25539 | 35847 ft | 471 kts | 30° |
| 2026-05-01 12:35 | -33.12590 | -54.23030 | 36052 ft | 472 kts | 30° |
| 2026-05-01 12:36 | -33.10100 | -54.20476 | 36198 ft | 472 kts | 30° |
| 2026-05-01 12:36 | -33.07605 | -54.17922 | 36379 ft | 473 kts | 30° |
| 2026-05-01 12:36 | -33.05109 | -54.15367 | 36551 ft | 473 kts | 30° |
| 2026-05-01 12:36 | -33.02612 | -54.12817 | 36753 ft | 472 kts | 30° |
| 2026-05-01 12:37 | -33.00119 | -54.10275 | 36952 ft | 471 kts | 30° |
| 2026-05-01 12:37 | -32.97632 | -54.07742 | 37009 ft | 469 kts | 29° |
| 2026-05-01 12:37 | -32.92693 | -54.02707 | 37008 ft | 466 kts | 29° |
| 2026-05-01 12:38 | -32.87759 | -53.97697 | 37008 ft | 466 kts | 29° |
| 2026-05-01 12:38 | -32.82804 | -53.92678 | 37007 ft | 469 kts | 29° |
| 2026-05-01 12:39 | -32.77826 | -53.87641 | 37009 ft | 471 kts | 30° |
| 2026-05-01 12:39 | -32.72839 | -53.82600 | 37008 ft | 471 kts | 29° |
| 2026-05-01 12:40 | -32.67857 | -53.77565 | 37008 ft | 471 kts | 29° |
| 2026-05-01 12:40 | -32.62871 | -53.72531 | 37006 ft | 470 kts | 29° |
| 2026-05-01 12:41 | -32.57890 | -53.67497 | 37003 ft | 470 kts | 29° |
| 2026-05-01 12:41 | -32.52901 | -53.62476 | 37002 ft | 470 kts | 29° |
| 2026-05-01 12:42 | -32.47902 | -53.57471 | 37003 ft | 470 kts | 29° |
| 2026-05-01 12:42 | -32.42943 | -53.52378 | 37004 ft | 475 kts | 32° |
| 2026-05-01 12:43 | -32.38085 | -53.47017 | 37022 ft | 480 kts | 33° |
| 2026-05-01 12:43 | -32.33189 | -53.41610 | 37030 ft | 481 kts | 32° |
| 2026-05-01 12:44 | -32.28283 | -53.36295 | 37013 ft | 477 kts | 31° |
| 2026-05-01 12:45 | -32.18521 | -53.25778 | 37022 ft | 470 kts | 31° |
| 2026-05-01 12:45 | -32.13651 | -53.20564 | 37002 ft | 472 kts | 31° |
| 2026-05-01 12:46 | -32.08829 | -53.15388 | 37009 ft | 471 kts | 32° |
| 2026-05-01 12:46 | -32.03993 | -53.10185 | 37008 ft | 471 kts | 31° |
| 2026-05-01 12:47 | -31.99149 | -53.04992 | 37006 ft | 471 kts | 31° |
| 2026-05-01 12:47 | -31.94315 | -52.99828 | 37013 ft | 469 kts | 31° |
| 2026-05-01 12:48 | -31.89472 | -52.94662 | 37013 ft | 472 kts | 32° |
| 2026-05-01 12:48 | -31.84572 | -52.89465 | 37016 ft | 476 kts | 32° |
| 2026-05-01 12:49 | -31.79682 | -52.84255 | 37023 ft | 473 kts | 32° |
| 2026-05-01 12:49 | -31.74815 | -52.79062 | 37035 ft | 471 kts | 32° |
| 2026-05-01 12:50 | -31.69961 | -52.73895 | 37024 ft | 471 kts | 32° |
| 2026-05-01 12:50 | -31.65080 | -52.68743 | 37019 ft | 472 kts | 31° |
| 2026-05-01 12:51 | -31.60166 | -52.63565 | 37020 ft | 476 kts | 32° |
| 2026-05-01 12:52 | -31.52769 | -52.55742 | 37038 ft | 479 kts | 32° |
| 2026-05-01 12:52 | -31.45346 | -52.47876 | 37058 ft | 482 kts | 32° |
| 2026-05-01 12:53 | -31.37860 | -52.40013 | 37078 ft | 480 kts | 32° |
| 2026-05-01 12:54 | -31.32921 | -52.34780 | 37063 ft | 477 kts | 32° |
| 2026-05-01 12:54 | -31.25521 | -52.27025 | 37028 ft | 478 kts | 32° |
| 2026-05-01 12:55 | -31.18140 | -52.19297 | 37031 ft | 475 kts | 32° |
| 2026-05-01 12:56 | -31.13207 | -52.14141 | 37046 ft | 476 kts | 32° |
| 2026-05-01 12:56 | -31.08294 | -52.08988 | 37046 ft | 475 kts | 32° |
| 2026-05-01 12:57 | -31.03368 | -52.03867 | 37041 ft | 475 kts | 32° |
| 2026-05-01 12:57 | -30.95950 | -51.96165 | 37038 ft | 478 kts | 32° |
| 2026-05-01 12:58 | -30.91018 | -51.91043 | 37031 ft | 479 kts | 32° |
| 2026-05-01 12:59 | -30.83543 | -51.83278 | 37042 ft | 481 kts | 32° |
| 2026-05-01 12:59 | -30.76051 | -51.75518 | 37050 ft | 481 kts | 32° |
| 2026-05-01 13:00 | -30.68544 | -51.67776 | 37060 ft | 481 kts | 32° |
| 2026-05-01 13:01 | -30.61035 | -51.60038 | 37061 ft | 481 kts | 32° |
| 2026-05-01 13:02 | -30.53522 | -51.52311 | 37059 ft | 481 kts | 32° |
| 2026-05-01 13:07 | -29.97719 | -50.96927 | 37078 ft | 480 kts | 31° |
| 2026-05-01 13:08 | -29.92633 | -50.91925 | 37078 ft | 481 kts | 31° |
| 2026-05-01 13:08 | -29.87574 | -50.86957 | 37079 ft | 480 kts | 30° |
| 2026-05-01 13:09 | -29.82342 | -50.82227 | 37086 ft | 476 kts | 27° |
| 2026-05-01 13:09 | -29.77005 | -50.77726 | 37093 ft | 475 kts | 26° |
| 2026-05-01 13:10 | -29.71679 | -50.73196 | 37102 ft | 476 kts | 27° |
| 2026-05-01 13:10 | -29.66400 | -50.68598 | 37107 ft | 477 kts | 28° |
| 2026-05-01 13:11 | -29.61120 | -50.63988 | 37107 ft | 476 kts | 28° |
| 2026-05-01 13:11 | -29.55833 | -50.59400 | 37112 ft | 476 kts | 27° |
| 2026-05-01 13:12 | -29.50758 | -50.54418 | 37120 ft | 488 kts | 38° |
| 2026-05-01 13:12 | -29.46091 | -50.48744 | 37127 ft | 489 kts | 38° |
| 2026-05-01 13:13 | -29.41431 | -50.43078 | 37119 ft | 487 kts | 38° |
| 2026-05-01 13:13 | -29.36754 | -50.37426 | 37112 ft | 487 kts | 38° |
| 2026-05-01 13:14 | -29.32091 | -50.31779 | 37096 ft | 488 kts | 38° |
| 2026-05-01 13:14 | -29.27416 | -50.26140 | 37095 ft | 488 kts | 38° |
| 2026-05-01 13:15 | -29.22730 | -50.20509 | 37100 ft | 488 kts | 38° |
| 2026-05-01 13:15 | -29.18050 | -50.14880 | 37099 ft | 488 kts | 38° |
| 2026-05-01 13:16 | -29.14154 | -50.10193 | 37112 ft | 489 kts | 38° |
| 2026-05-01 13:16 | -29.09461 | -50.04555 | 37113 ft | 489 kts | 38° |
| 2026-05-01 13:17 | -29.00052 | -49.93294 | 37124 ft | 490 kts | 38° |
| 2026-05-01 13:18 | -28.92990 | -49.84858 | 37125 ft | 491 kts | 38° |
| 2026-05-01 13:18 | -28.88275 | -49.79212 | 37129 ft | 492 kts | 39° |
| 2026-05-01 13:19 | -28.83663 | -49.73418 | 37135 ft | 494 kts | 40° |
| 2026-05-01 13:20 | -28.76798 | -49.64638 | 37136 ft | 494 kts | 40° |
| 2026-05-01 13:20 | -28.72178 | -49.58829 | 37138 ft | 494 kts | 40° |
| 2026-05-01 13:21 | -28.65231 | -49.50145 | 37138 ft | 495 kts | 40° |
| 2026-05-01 13:21 | -28.60600 | -49.44341 | 37144 ft | 495 kts | 40° |
| 2026-05-01 13:22 | -28.55969 | -49.38537 | 37144 ft | 495 kts | 40° |
| 2026-05-01 13:22 | -28.51331 | -49.32746 | 37148 ft | 495 kts | 40° |
| 2026-05-01 13:23 | -28.46686 | -49.26964 | 37147 ft | 495 kts | 40° |
| 2026-05-01 13:23 | -28.42042 | -49.21179 | 37149 ft | 495 kts | 40° |
| 2026-05-01 13:24 | -28.37394 | -49.15403 | 37157 ft | 495 kts | 39° |
| 2026-05-01 13:25 | -28.30445 | -49.06786 | 37164 ft | 495 kts | 39° |
| 2026-05-01 13:25 | -28.25801 | -49.01027 | 37161 ft | 495 kts | 40° |
| 2026-05-01 13:26 | -28.21217 | -48.95272 | 37161 ft | 495 kts | 40° |
| 2026-05-01 13:26 | -28.16614 | -48.89473 | 37168 ft | 495 kts | 40° |
| 2026-05-01 13:27 | -28.12003 | -48.83687 | 37161 ft | 495 kts | 40° |
| 2026-05-01 13:27 | -28.05065 | -48.75029 | 37161 ft | 496 kts | 40° |
| 2026-05-01 13:28 | -27.98115 | -48.66361 | 37161 ft | 496 kts | 40° |
| 2026-05-01 13:29 | -27.88858 | -48.54824 | 37175 ft | 494 kts | 40° |
| 2026-05-01 13:31 | -27.74952 | -48.37616 | 37162 ft | 494 kts | 40° |
| 2026-05-01 13:32 | -27.63373 | -48.23298 | 37165 ft | 494 kts | 40° |
| 2026-05-01 13:33 | -27.51807 | -48.09061 | 37169 ft | 494 kts | 40° |
| 2026-05-01 13:34 | -27.42527 | -47.97670 | 37169 ft | 493 kts | 40° |
| 2026-05-01 13:35 | -27.35563 | -47.89149 | 37168 ft | 493 kts | 40° |
| 2026-05-01 13:36 | -27.28562 | -47.80684 | 37176 ft | 493 kts | 40° |
| 2026-05-01 13:36 | -27.21558 | -47.72237 | 37173 ft | 492 kts | 40° |
| 2026-05-01 13:37 | -27.16892 | -47.66606 | 37169 ft | 492 kts | 40° |
| 2026-05-01 13:37 | -27.12227 | -47.60972 | 37176 ft | 492 kts | 40° |
| 2026-05-01 13:38 | -27.05224 | -47.52536 | 37178 ft | 492 kts | 40° |
| 2026-05-01 13:39 | -27.00556 | -47.46920 | 37184 ft | 492 kts | 40° |
| 2026-05-01 13:39 | -26.95893 | -47.41323 | 37180 ft | 491 kts | 40° |
| 2026-05-01 13:40 | -26.91221 | -47.35735 | 37181 ft | 491 kts | 40° |
| 2026-05-01 13:40 | -26.86555 | -47.30154 | 37186 ft | 491 kts | 40° |
| 2026-05-01 13:41 | -26.81889 | -47.24580 | 37194 ft | 490 kts | 40° |
| 2026-05-01 13:41 | -26.77228 | -47.19010 | 37179 ft | 490 kts | 40° |
| 2026-05-01 13:42 | -26.72593 | -47.13485 | 37183 ft | 490 kts | 40° |
| 2026-05-01 13:42 | -26.67926 | -47.07931 | 37184 ft | 490 kts | 40° |
| 2026-05-01 13:43 | -26.63248 | -47.02389 | 37181 ft | 490 kts | 40° |
| 2026-05-01 13:43 | -26.58570 | -46.96855 | 37187 ft | 490 kts | 40° |
| 2026-05-01 13:44 | -26.53882 | -46.91339 | 37180 ft | 489 kts | 40° |
| 2026-05-01 13:44 | -26.49191 | -46.85832 | 37185 ft | 489 kts | 40° |
| 2026-05-01 13:45 | -26.44496 | -46.80332 | 37179 ft | 489 kts | 40° |
| 2026-05-01 13:45 | -26.39797 | -46.74837 | 37191 ft | 489 kts | 40° |
| 2026-05-01 13:46 | -26.35111 | -46.69343 | 37178 ft | 489 kts | 40° |
| 2026-05-01 13:46 | -26.30421 | -46.63845 | 37193 ft | 489 kts | 40° |
| 2026-05-01 13:47 | -26.25722 | -46.58365 | 37175 ft | 489 kts | 40° |
| 2026-05-01 13:47 | -26.21021 | -46.52888 | 37194 ft | 489 kts | 40° |
| 2026-05-01 13:48 | -26.16316 | -46.47421 | 37203 ft | 489 kts | 40° |
| 2026-05-01 13:48 | -26.11616 | -46.41948 | 37205 ft | 489 kts | 40° |
| 2026-05-01 13:49 | -26.06919 | -46.36482 | 37214 ft | 488 kts | 40° |
| 2026-05-01 13:49 | -26.02217 | -46.31029 | 37217 ft | 488 kts | 40° |
| 2026-05-01 13:50 | -25.97520 | -46.25577 | 37219 ft | 488 kts | 40° |
| 2026-05-01 13:50 | -25.92819 | -46.20137 | 37218 ft | 488 kts | 40° |
| 2026-05-01 13:51 | -25.88122 | -46.14719 | 37217 ft | 487 kts | 40° |
| 2026-05-01 13:51 | -25.83423 | -46.09295 | 37215 ft | 487 kts | 40° |
| 2026-05-01 13:52 | -25.78727 | -46.03871 | 37213 ft | 487 kts | 40° |
| 2026-05-01 13:52 | -25.74060 | -45.98494 | 37211 ft | 487 kts | 40° |
| 2026-05-01 13:53 | -25.69365 | -45.93091 | 37208 ft | 486 kts | 40° |
| 2026-05-01 13:53 | -25.62329 | -45.85011 | 37205 ft | 485 kts | 40° |
| 2026-05-01 13:54 | -25.57627 | -45.79639 | 37202 ft | 485 kts | 40° |
| 2026-05-01 13:54 | -25.52937 | -45.74256 | 37201 ft | 486 kts | 41° |
| 2026-05-01 13:55 | -25.48244 | -45.68878 | 37202 ft | 485 kts | 40° |
| 2026-05-01 13:55 | -25.43547 | -45.63515 | 37208 ft | 485 kts | 40° |
| 2026-05-01 13:56 | -25.38854 | -45.58167 | 37209 ft | 484 kts | 40° |
| 2026-05-01 13:56 | -25.34161 | -45.52827 | 37207 ft | 484 kts | 41° |
| 2026-05-01 13:57 | -25.30238 | -45.48354 | 37210 ft | 484 kts | 41° |
| 2026-05-01 13:57 | -25.24799 | -45.42154 | 37208 ft | 483 kts | 41° |
| 2026-05-01 13:58 | -25.20110 | -45.36834 | 37209 ft | 483 kts | 41° |
| 2026-05-01 13:58 | -25.15423 | -45.31530 | 37210 ft | 482 kts | 41° |
| 2026-05-01 13:59 | -25.10740 | -45.26231 | 37213 ft | 482 kts | 41° |
| 2026-05-01 13:59 | -25.06064 | -45.20935 | 37215 ft | 481 kts | 41° |
| 2026-05-01 14:00 | -25.01399 | -45.15652 | 37212 ft | 481 kts | 41° |
| 2026-05-01 14:00 | -24.96729 | -45.10374 | 37206 ft | 480 kts | 41° |
| 2026-05-01 14:01 | -24.92063 | -45.05116 | 37196 ft | 479 kts | 41° |
| 2026-05-01 14:01 | -24.87398 | -44.99864 | 37180 ft | 480 kts | 41° |
| 2026-05-01 14:02 | -24.82734 | -44.94615 | 37178 ft | 479 kts | 41° |
| 2026-05-01 14:02 | -24.78853 | -44.90256 | 37179 ft | 479 kts | 41° |
| 2026-05-01 14:03 | -24.74195 | -44.85023 | 37175 ft | 479 kts | 41° |
| 2026-05-01 14:03 | -24.68771 | -44.78945 | 37179 ft | 478 kts | 41° |
| 2026-05-01 14:04 | -24.64867 | -44.74578 | 37194 ft | 478 kts | 41° |
| 2026-05-01 14:04 | -24.60202 | -44.69360 | 37190 ft | 479 kts | 41° |
| 2026-05-01 14:05 | -24.55533 | -44.64145 | 37194 ft | 479 kts | 41° |
| 2026-05-01 14:05 | -24.50853 | -44.58953 | 37202 ft | 476 kts | 37° |
| 2026-05-01 14:06 | -24.45461 | -44.54938 | 37207 ft | 465 kts | 23° |
| 2026-05-01 14:06 | -24.39770 | -44.51554 | 37207 ft | 465 kts | 23° |
| 2026-05-01 14:07 | -24.34130 | -44.48172 | 37045 ft | 466 kts | 23° |
| 2026-05-01 14:07 | -24.31280 | -44.46467 | 36490 ft | 465 kts | 23° |
| 2026-05-01 14:08 | -24.25642 | -44.43101 | 35483 ft | 459 kts | 23° |
| 2026-05-01 14:08 | -24.22847 | -44.41435 | 34969 ft | 456 kts | 23° |
| 2026-05-01 14:08 | -24.20065 | -44.39779 | 34429 ft | 454 kts | 23° |
| 2026-05-01 14:08 | -24.17292 | -44.38135 | 33911 ft | 452 kts | 23° |
| 2026-05-01 14:09 | -24.14539 | -44.36501 | 33429 ft | 449 kts | 24° |
| 2026-05-01 14:09 | -24.11804 | -44.34875 | 32971 ft | 445 kts | 24° |
| 2026-05-01 14:09 | -24.09094 | -44.33266 | 32517 ft | 442 kts | 24° |
| 2026-05-01 14:09 | -24.06406 | -44.31671 | 32065 ft | 438 kts | 24° |
| 2026-05-01 14:10 | -24.03740 | -44.30089 | 31618 ft | 434 kts | 24° |
| 2026-05-01 14:10 | -24.01100 | -44.28513 | 31169 ft | 430 kts | 24° |
| 2026-05-01 14:10 | -23.98485 | -44.26943 | 30708 ft | 427 kts | 24° |
| 2026-05-01 14:10 | -23.95890 | -44.25391 | 30256 ft | 423 kts | 24° |
| 2026-05-01 14:11 | -23.93316 | -44.23855 | 29803 ft | 420 kts | 24° |
| 2026-05-01 14:11 | -23.88229 | -44.20831 | 28887 ft | 413 kts | 24° |
| 2026-05-01 14:11 | -23.85713 | -44.19342 | 28438 ft | 410 kts | 24° |
| 2026-05-01 14:12 | -23.83215 | -44.17867 | 27979 ft | 406 kts | 24° |
| 2026-05-01 14:12 | -23.80797 | -44.16275 | 27523 ft | 407 kts | 35° |
| 2026-05-01 14:12 | -23.78743 | -44.14147 | 27064 ft | 407 kts | 43° |
| 2026-05-01 14:12 | -23.76776 | -44.11933 | 26613 ft | 405 kts | 43° |
| 2026-05-01 14:13 | -23.74831 | -44.09722 | 26156 ft | 402 kts | 43° |
| 2026-05-01 14:13 | -23.72909 | -44.07527 | 25717 ft | 399 kts | 43° |
| 2026-05-01 14:13 | -23.70995 | -44.05348 | 25270 ft | 396 kts | 43° |
| 2026-05-01 14:13 | -23.69098 | -44.03190 | 24833 ft | 393 kts | 43° |
| 2026-05-01 14:14 | -23.67211 | -44.01049 | 24399 ft | 390 kts | 43° |
| 2026-05-01 14:14 | -23.65339 | -43.98931 | 23950 ft | 387 kts | 43° |
| 2026-05-01 14:14 | -23.63476 | -43.96827 | 23517 ft | 384 kts | 43° |
| 2026-05-01 14:14 | -23.61625 | -43.94739 | 23105 ft | 381 kts | 43° |
| 2026-05-01 14:15 | -23.59790 | -43.92670 | 22709 ft | 378 kts | 43° |
| 2026-05-01 14:15 | -23.57972 | -43.90618 | 22296 ft | 375 kts | 43° |
| 2026-05-01 14:15 | -23.56167 | -43.88578 | 21892 ft | 373 kts | 43° |
| 2026-05-01 14:15 | -23.54375 | -43.86552 | 21473 ft | 370 kts | 43° |
| 2026-05-01 14:16 | -23.52557 | -43.84502 | 20522 ft | 383 kts | 44° |
| 2026-05-01 14:16 | -23.50670 | -43.82381 | 19644 ft | 394 kts | 44° |
| 2026-05-01 14:16 | -23.48762 | -43.80235 | 19083 ft | 394 kts | 44° |
| 2026-05-01 14:16 | -23.46861 | -43.78099 | 18614 ft | 391 kts | 44° |
| 2026-05-01 14:17 | -23.44978 | -43.75979 | 18155 ft | 388 kts | 44° |
| 2026-05-01 14:17 | -23.43108 | -43.73874 | 17704 ft | 385 kts | 44° |
| 2026-05-01 14:17 | -23.41253 | -43.71787 | 17251 ft | 382 kts | 44° |
| 2026-05-01 14:17 | -23.39413 | -43.69715 | 16814 ft | 379 kts | 44° |
| 2026-05-01 14:18 | -23.37588 | -43.67659 | 16371 ft | 376 kts | 44° |
| 2026-05-01 14:18 | -23.35779 | -43.65622 | 15936 ft | 373 kts | 44° |
| 2026-05-01 14:18 | -23.33983 | -43.63602 | 15509 ft | 370 kts | 45° |
| 2026-05-01 14:18 | -23.32801 | -43.62275 | 15219 ft | 368 kts | 45° |
| 2026-05-01 14:19 | -23.30429 | -43.59618 | 14645 ft | 364 kts | 45° |
| 2026-05-01 14:19 | -23.28675 | -43.57650 | 14219 ft | 361 kts | 45° |
| 2026-05-01 14:19 | -23.26937 | -43.55701 | 13903 ft | 355 kts | 45° |
| 2026-05-01 14:19 | -23.25248 | -43.53806 | 13773 ft | 343 kts | 45° |
| 2026-05-01 14:20 | -23.23610 | -43.51970 | 13645 ft | 333 kts | 45° |
| 2026-05-01 14:20 | -23.20497 | -43.48490 | 13384 ft | 314 kts | 45° |
| 2026-05-01 14:20 | -23.18986 | -43.46800 | 13139 ft | 309 kts | 45° |
| 2026-05-01 14:21 | -23.17491 | -43.45129 | 12837 ft | 307 kts | 45° |
| 2026-05-01 14:21 | -23.16010 | -43.43473 | 12538 ft | 305 kts | 45° |
| 2026-05-01 14:21 | -23.14541 | -43.41831 | 12195 ft | 302 kts | 45° |
| 2026-05-01 14:22 | -23.11630 | -43.38575 | 11531 ft | 298 kts | 46° |
| 2026-05-01 14:22 | -23.10187 | -43.36961 | 11218 ft | 298 kts | 46° |
| 2026-05-01 14:22 | -23.08742 | -43.35356 | 10906 ft | 296 kts | 46° |
| 2026-05-01 14:22 | -23.07310 | -43.33761 | 10670 ft | 294 kts | 46° |
| 2026-05-01 14:23 | -23.05890 | -43.32173 | 10652 ft | 293 kts | 46° |
| 2026-05-01 14:23 | -23.04472 | -43.30585 | 10665 ft | 293 kts | 46° |
| 2026-05-01 14:23 | -23.03054 | -43.28998 | 10659 ft | 293 kts | 46° |
| 2026-05-01 14:23 | -23.01638 | -43.27417 | 10654 ft | 291 kts | 46° |
| 2026-05-01 14:24 | -23.00223 | -43.25843 | 10664 ft | 291 kts | 46° |
| 2026-05-01 14:24 | -22.98950 | -43.24138 | 10668 ft | 292 kts | 63° |
| 2026-05-01 14:24 | -22.98289 | -43.22071 | 10600 ft | 290 kts | 75° |
| 2026-05-01 14:24 | -22.97804 | -43.19953 | 10236 ft | 289 kts | 77° |
| 2026-05-01 14:25 | -22.97339 | -43.17841 | 9879 ft | 287 kts | 77° |
| 2026-05-01 14:25 | -22.96883 | -43.15744 | 9539 ft | 285 kts | 78° |
| 2026-05-01 14:25 | -22.96640 | -43.13623 | 9190 ft | 283 kts | 86° |
| 2026-05-01 14:25 | -22.96518 | -43.11500 | 8851 ft | 280 kts | 86° |
| 2026-05-01 14:26 | -22.96644 | -43.09415 | 8510 ft | 277 kts | 107° |
| 2026-05-01 14:26 | -22.98236 | -43.05709 | 8040 ft | 262 kts | 117° |
| 2026-05-01 14:26 | -22.99065 | -43.03967 | 7727 ft | 258 kts | 116° |
| 2026-05-01 14:27 | -22.99886 | -43.02241 | 7362 ft | 257 kts | 117° |
| 2026-05-01 14:27 | -23.00704 | -43.00524 | 6998 ft | 255 kts | 117° |
| 2026-05-01 14:27 | -23.01518 | -42.98817 | 6653 ft | 254 kts | 117° |
| 2026-05-01 14:28 | -23.03132 | -42.95432 | 5937 ft | 251 kts | 117° |
| 2026-05-01 14:28 | -23.03930 | -42.93756 | 5582 ft | 249 kts | 117° |
| 2026-05-01 14:28 | -23.04725 | -42.92095 | 5235 ft | 247 kts | 117° |
| 2026-05-01 14:28 | -23.05514 | -42.90444 | 4882 ft | 245 kts | 116° |
| 2026-05-01 14:29 | -23.06288 | -42.88804 | 4535 ft | 244 kts | 114° |
| 2026-05-01 14:29 | -23.06670 | -42.87035 | 4197 ft | 241 kts | 89° |
| 2026-05-01 14:30 | -23.03726 | -42.83139 | 3766 ft | 245 kts | 11° |
| 2026-05-01 14:30 | -23.02022 | -42.83217 | 3764 ft | 249 kts | 343° |
| 2026-05-01 14:30 | -23.00522 | -42.84142 | 3766 ft | 250 kts | 316° |
| 2026-05-01 14:31 | -22.99028 | -42.87509 | 3757 ft | 251 kts | 288° |
| 2026-05-01 14:31 | -22.98485 | -42.89308 | 3763 ft | 252 kts | 288° |
| 2026-05-01 14:31 | -22.97934 | -42.91118 | 3692 ft | 252 kts | 288° |
| 2026-05-01 14:31 | -22.97399 | -42.92866 | 3558 ft | 244 kts | 288° |
| 2026-05-01 14:32 | -22.96867 | -42.94603 | 3442 ft | 242 kts | 288° |
| 2026-05-01 14:32 | -22.96337 | -42.96327 | 3400 ft | 240 kts | 288° |
| 2026-05-01 14:32 | -22.95812 | -42.98045 | 3520 ft | 241 kts | 288° |
| 2026-05-01 14:32 | -22.95280 | -42.99778 | 3589 ft | 243 kts | 289° |
| 2026-05-01 14:33 | -22.94744 | -43.01513 | 3611 ft | 242 kts | 289° |
| 2026-05-01 14:33 | -22.94209 | -43.03244 | 3611 ft | 242 kts | 289° |
| 2026-05-01 14:33 | -22.93676 | -43.04969 | 3609 ft | 242 kts | 288° |
| 2026-05-01 14:33 | -22.93133 | -43.06692 | 3607 ft | 241 kts | 292° |
| 2026-05-01 14:34 | -22.92352 | -43.08287 | 3538 ft | 239 kts | 301° |
| 2026-05-01 14:34 | -22.91485 | -43.09810 | 3330 ft | 234 kts | 303° |
| 2026-05-01 14:34 | -22.90648 | -43.11255 | 3219 ft | 218 kts | 303° |
| 2026-05-01 14:34 | -22.89870 | -43.12599 | 3092 ft | 203 kts | 303° |
| 2026-05-01 14:35 | -22.89141 | -43.13859 | 2976 ft | 189 kts | 303° |
| 2026-05-01 14:35 | -22.88507 | -43.15020 | 2862 ft | 170 kts | 300° |
| 2026-05-01 14:35 | -22.87927 | -43.16120 | 2574 ft | 167 kts | 300° |
| 2026-05-01 14:35 | -22.87316 | -43.17188 | 2238 ft | 166 kts | 305° |
| 2026-05-01 14:36 | -22.86642 | -43.18196 | 1927 ft | 160 kts | 307° |
| 2026-05-01 14:36 | -22.85986 | -43.19140 | 1617 ft | 154 kts | 305° |
| 2026-05-01 14:36 | -22.85377 | -43.20098 | 1215 ft | 155 kts | 304° |
| 2026-05-01 14:36 | -22.84768 | -43.21062 | 824 ft | 154 kts | 302° |
| 2026-05-01 14:37 | -22.84168 | -43.22022 | 452 ft | 152 kts | 305° |
| 2026-05-01 14:37 | -22.83545 | -43.22908 | 211 ft | 144 kts | 306° |
| 2026-05-01 14:37 | -22.82969 | -43.23781 | 67 ft | 142 kts | 306° |
| 2026-05-01 14:37 | -22.82414 | -43.24595 | 20 ft | 119 kts | 306° |
| 2026-05-01 14:38 | -22.82000 | -43.25219 | 27 ft | 72 kts | 306° |
| 2026-05-01 14:38 | -22.81830 | -43.25483 | 27 ft | 24 kts | 288° |
| 2026-05-01 14:38 | -22.81738 | -43.25493 | 23 ft | 11 kts | 73° |
| 2026-05-01 14:38 | -22.81743 | -43.25440 | 23 ft | 6 kts | 95° |
| 2026-05-01 14:39 | -22.81747 | -43.25395 | 22 ft | 6 kts | 90° |
| 2026-05-01 14:39 | -22.81726 | -43.25352 | 22 ft | 10 kts | 48° |
| 2026-05-01 14:39 | -22.81677 | -43.25310 | 23 ft | 8 kts | 35° |
| 2026-05-01 14:39 | -22.81638 | -43.25278 | 23 ft | 7 kts | 36° |
| 2026-05-01 14:40 | -22.81595 | -43.25243 | 23 ft | 8 kts | 37° |
| 2026-05-01 14:40 | -22.81552 | -43.25211 | 21 ft | 7 kts | 34° |
| 2026-05-01 14:40 | -22.81511 | -43.25180 | 21 ft | 7 kts | 34° |
| 2026-05-01 14:40 | -22.81477 | -43.25155 | 21 ft | 5 kts | 35° |
| 2026-05-01 14:41 | -22.81450 | -43.25132 | 23 ft | 5 kts | 38° |
| 2026-05-01 14:41 | -22.81398 | -43.25116 | 22 ft | 11 kts | 340° |
| 2026-05-01 14:41 | -22.81326 | -43.25120 | 22 ft | 9 kts | 7° |
| 2026-05-01 14:41 | -22.81274 | -43.25125 | 22 ft | 2 kts | 351° |